sensor_id;sensor_type;location;lat;lon;timestamp;temperature;humidity
24207;DHT22;12351;52.284;9.160;2024-01-06T00:01:02;6.50;99.90
24207;DHT22;12351;52.284;9.160;2024-01-06T00:03:50;6.40;99.90
24207;DHT22;12351;52.284;9.160;2024-01-06T00:06:37;6.40;99.90
24207;DHT22;12351;52.284;9.160;2024-01-06T00:09:25;6.40;99.90
24207;DHT22;12351;52.284;9.160;2024-01-06T00:12:14;6.40;99.90
24207;DHT22;12351;52.284;9.160;2024-01-06T00:15:02;6.40;99.90
24207;DHT22;12351;52.284;9.160;2024-01-06T00:20:37;6.40;99.90
24207;DHT22;12351;52.284;9.160;2024-01-06T00:23:25;6.40;99.90
24207;DHT22;12351;52.284;9.160;2024-01-06T00:26:12;6.40;99.90
24207;DHT22;12351;52.284;9.160;2024-01-06T00:28:59;6.40;99.90
24207;DHT22;12351;52.284;9.160;2024-01-06T00:31:46;6.40;99.90
24207;DHT22;12351;52.284;9.160;2024-01-06T00:34:33;6.40;99.90
24207;DHT22;12351;52.284;9.160;2024-01-06T00:40:09;6.40;99.90
24207;DHT22;12351;52.284;9.160;2024-01-06T00:45:44;6.40;99.90
24207;DHT22;12351;52.284;9.160;2024-01-06T00:48:31;6.30;99.90
24207;DHT22;12351;52.284;9.160;2024-01-06T00:51:18;6.40;99.90
24207;DHT22;12351;52.284;9.160;2024-01-06T00:54:06;6.30;99.90
24207;DHT22;12351;52.284;9.160;2024-01-06T00:56:53;6.30;99.90
24207;DHT22;12351;52.284;9.160;2024-01-06T01:02:29;6.40;99.90
24207;DHT22;12351;52.284;9.160;2024-01-06T01:05:16;6.40;99.90
24207;DHT22;12351;52.284;9.160;2024-01-06T01:08:04;6.40;99.90
24207;DHT22;12351;52.284;9.160;2024-01-06T01:10:51;6.40;99.90
24207;DHT22;12351;52.284;9.160;2024-01-06T01:13:38;6.40;99.90
24207;DHT22;12351;52.284;9.160;2024-01-06T01:16:31;6.40;99.90
24207;DHT22;12351;52.284;9.160;2024-01-06T01:19:19;6.40;99.90
24207;DHT22;12351;52.284;9.160;2024-01-06T01:22:06;6.40;99.90
24207;DHT22;12351;52.284;9.160;2024-01-06T01:24:53;6.40;99.90
24207;DHT22;12351;52.284;9.160;2024-01-06T01:27:40;6.40;99.90
24207;DHT22;12351;52.284;9.160;2024-01-06T01:30:27;6.30;99.90
24207;DHT22;12351;52.284;9.160;2024-01-06T01:33:14;6.30;99.90
24207;DHT22;12351;52.284;9.160;2024-01-06T01:36:04;6.30;99.90
24207;DHT22;12351;52.284;9.160;2024-01-06T01:38:51;6.30;99.90
24207;DHT22;12351;52.284;9.160;2024-01-06T01:41:39;6.30;99.90
24207;DHT22;12351;52.284;9.160;2024-01-06T01:47:17;6.30;99.90
24207;DHT22;12351;52.284;9.160;2024-01-06T01:50:05;6.30;99.90
24207;DHT22;12351;52.284;9.160;2024-01-06T01:52:53;6.30;99.90
24207;DHT22;12351;52.284;9.160;2024-01-06T01:55:41;6.30;99.90
24207;DHT22;12351;52.284;9.160;2024-01-06T01:58:28;6.30;99.90
24207;DHT22;12351;52.284;9.160;2024-01-06T02:01:16;6.30;99.90
24207;DHT22;12351;52.284;9.160;2024-01-06T02:04:04;6.30;99.90
24207;DHT22;12351;52.284;9.160;2024-01-06T02:06:50;6.30;99.90
24207;DHT22;12351;52.284;9.160;2024-01-06T02:09:41;6.30;99.90
24207;DHT22;12351;52.284;9.160;2024-01-06T02:12:28;6.30;99.90
24207;DHT22;12351;52.284;9.160;2024-01-06T02:15:15;6.30;99.90
24207;DHT22;12351;52.284;9.160;2024-01-06T02:18:02;6.30;99.90
24207;DHT22;12351;52.284;9.160;2024-01-06T02:20:53;6.30;99.90
24207;DHT22;12351;52.284;9.160;2024-01-06T02:23:47;6.30;99.90
24207;DHT22;12351;52.284;9.160;2024-01-06T02:29:23;6.30;99.90
24207;DHT22;12351;52.284;9.160;2024-01-06T02:32:10;6.30;99.90
24207;DHT22;12351;52.284;9.160;2024-01-06T02:34:58;6.30;99.90
24207;DHT22;12351;52.284;9.160;2024-01-06T02:37:45;6.30;99.90
24207;DHT22;12351;52.284;9.160;2024-01-06T02:40:32;6.30;99.90
24207;DHT22;12351;52.284;9.160;2024-01-06T02:43:24;6.30;99.90
24207;DHT22;12351;52.284;9.160;2024-01-06T02:46:11;6.20;99.90
24207;DHT22;12351;52.284;9.160;2024-01-06T02:48:58;6.20;99.90
24207;DHT22;12351;52.284;9.160;2024-01-06T02:51:45;6.20;99.90
24207;DHT22;12351;52.284;9.160;2024-01-06T02:54:32;6.20;99.90
24207;DHT22;12351;52.284;9.160;2024-01-06T02:57:19;6.20;99.90
24207;DHT22;12351;52.284;9.160;2024-01-06T03:00:08;6.20;99.90
24207;DHT22;12351;52.284;9.160;2024-01-06T03:02:55;6.20;99.90
24207;DHT22;12351;52.284;9.160;2024-01-06T03:05:42;6.20;99.90
24207;DHT22;12351;52.284;9.160;2024-01-06T03:08:30;6.20;99.90
24207;DHT22;12351;52.284;9.160;2024-01-06T03:11:17;6.20;99.90
24207;DHT22;12351;52.284;9.160;2024-01-06T03:14:03;6.10;99.90
24207;DHT22;12351;52.284;9.160;2024-01-06T03:16:51;6.10;99.90
24207;DHT22;12351;52.284;9.160;2024-01-06T03:19:38;6.10;99.90
24207;DHT22;12351;52.284;9.160;2024-01-06T03:22:26;6.20;99.90
24207;DHT22;12351;52.284;9.160;2024-01-06T03:25:13;6.10;99.90
24207;DHT22;12351;52.284;9.160;2024-01-06T03:28:00;6.20;99.90
24207;DHT22;12351;52.284;9.160;2024-01-06T03:30:47;6.10;99.90
24207;DHT22;12351;52.284;9.160;2024-01-06T03:33:34;6.10;99.90
24207;DHT22;12351;52.284;9.160;2024-01-06T03:36:21;6.10;99.90
24207;DHT22;12351;52.284;9.160;2024-01-06T03:41:59;6.10;99.90
24207;DHT22;12351;52.284;9.160;2024-01-06T03:44:49;6.10;99.90
24207;DHT22;12351;52.284;9.160;2024-01-06T03:47:36;6.10;99.90
24207;DHT22;12351;52.284;9.160;2024-01-06T03:50:24;6.10;99.90
24207;DHT22;12351;52.284;9.160;2024-01-06T03:53:12;6.10;99.90
24207;DHT22;12351;52.284;9.160;2024-01-06T03:55:59;6.10;99.90
24207;DHT22;12351;52.284;9.160;2024-01-06T03:58:47;6.10;99.90
24207;DHT22;12351;52.284;9.160;2024-01-06T04:01:34;6.10;99.90
24207;DHT22;12351;52.284;9.160;2024-01-06T04:04:22;6.10;99.90
24207;DHT22;12351;52.284;9.160;2024-01-06T04:07:09;6.10;99.90
24207;DHT22;12351;52.284;9.160;2024-01-06T04:09:56;6.10;99.90
24207;DHT22;12351;52.284;9.160;2024-01-06T04:12:43;6.10;99.90
24207;DHT22;12351;52.284;9.160;2024-01-06T04:15:30;6.10;99.90
24207;DHT22;12351;52.284;9.160;2024-01-06T04:18:18;6.10;99.90
24207;DHT22;12351;52.284;9.160;2024-01-06T04:21:05;6.10;99.90
24207;DHT22;12351;52.284;9.160;2024-01-06T04:23:52;6.10;99.90
24207;DHT22;12351;52.284;9.160;2024-01-06T04:26:39;6.10;99.90
24207;DHT22;12351;52.284;9.160;2024-01-06T04:29:26;6.10;99.90
24207;DHT22;12351;52.284;9.160;2024-01-06T04:32:16;6.10;99.90
24207;DHT22;12351;52.284;9.160;2024-01-06T04:35:03;6.10;99.90
24207;DHT22;12351;52.284;9.160;2024-01-06T04:37:50;6.10;99.90
24207;DHT22;12351;52.284;9.160;2024-01-06T04:40:37;6.10;99.90
24207;DHT22;12351;52.284;9.160;2024-01-06T04:43:24;6.10;99.90
24207;DHT22;12351;52.284;9.160;2024-01-06T04:46:11;6.10;99.90
24207;DHT22;12351;52.284;9.160;2024-01-06T04:48:59;6.10;99.90
24207;DHT22;12351;52.284;9.160;2024-01-06T04:51:48;6.10;99.90
24207;DHT22;12351;52.284;9.160;2024-01-06T04:54:35;6.10;99.90
24207;DHT22;12351;52.284;9.160;2024-01-06T04:57:21;6.10;99.90
24207;DHT22;12351;52.284;9.160;2024-01-06T05:00:09;6.10;99.90
24207;DHT22;12351;52.284;9.160;2024-01-06T05:02:57;6.10;99.90
24207;DHT22;12351;52.284;9.160;2024-01-06T05:08:32;6.10;99.90
24207;DHT22;12351;52.284;9.160;2024-01-06T05:11:20;6.10;99.90
24207;DHT22;12351;52.284;9.160;2024-01-06T05:14:07;6.10;99.90
24207;DHT22;12351;52.284;9.160;2024-01-06T05:16:54;6.10;99.90
24207;DHT22;12351;52.284;9.160;2024-01-06T05:19:41;6.10;99.90
24207;DHT22;12351;52.284;9.160;2024-01-06T05:22:28;6.00;99.90
24207;DHT22;12351;52.284;9.160;2024-01-06T05:25:15;6.10;99.90
24207;DHT22;12351;52.284;9.160;2024-01-06T05:28:02;6.00;99.90
24207;DHT22;12351;52.284;9.160;2024-01-06T05:30:50;6.10;99.90
24207;DHT22;12351;52.284;9.160;2024-01-06T05:33:37;6.10;99.90
24207;DHT22;12351;52.284;9.160;2024-01-06T05:36:24;6.00;99.90
24207;DHT22;12351;52.284;9.160;2024-01-06T05:39:11;6.00;99.90
24207;DHT22;12351;52.284;9.160;2024-01-06T05:41:58;6.00;99.90
24207;DHT22;12351;52.284;9.160;2024-01-06T05:44:46;6.10;99.90
24207;DHT22;12351;52.284;9.160;2024-01-06T05:47:32;6.10;99.90
24207;DHT22;12351;52.284;9.160;2024-01-06T05:50:20;6.00;99.90
24207;DHT22;12351;52.284;9.160;2024-01-06T05:53:07;6.00;99.90
24207;DHT22;12351;52.284;9.160;2024-01-06T05:55:54;6.10;99.90
24207;DHT22;12351;52.284;9.160;2024-01-06T05:58:42;6.00;99.90
24207;DHT22;12351;52.284;9.160;2024-01-06T06:01:29;6.00;99.90
24207;DHT22;12351;52.284;9.160;2024-01-06T06:04:17;6.00;99.90
24207;DHT22;12351;52.284;9.160;2024-01-06T06:07:04;6.00;99.90
24207;DHT22;12351;52.284;9.160;2024-01-06T06:09:51;6.00;99.90
24207;DHT22;12351;52.284;9.160;2024-01-06T06:12:40;6.00;99.90
24207;DHT22;12351;52.284;9.160;2024-01-06T06:15:27;6.00;99.90
24207;DHT22;12351;52.284;9.160;2024-01-06T06:18:14;6.00;99.90
24207;DHT22;12351;52.284;9.160;2024-01-06T06:21:03;6.00;99.90
24207;DHT22;12351;52.284;9.160;2024-01-06T06:23:50;5.90;99.90
24207;DHT22;12351;52.284;9.160;2024-01-06T06:26:37;5.90;99.90
24207;DHT22;12351;52.284;9.160;2024-01-06T06:29:28;5.90;99.90
24207;DHT22;12351;52.284;9.160;2024-01-06T06:32:16;5.90;99.90
24207;DHT22;12351;52.284;9.160;2024-01-06T06:35:03;5.90;99.90
24207;DHT22;12351;52.284;9.160;2024-01-06T06:37:50;5.90;99.90
24207;DHT22;12351;52.284;9.160;2024-01-06T06:40:37;5.90;99.90
24207;DHT22;12351;52.284;9.160;2024-01-06T06:43:24;5.90;99.90
24207;DHT22;12351;52.284;9.160;2024-01-06T06:46:11;5.90;99.90
24207;DHT22;12351;52.284;9.160;2024-01-06T06:48:58;5.90;99.90
24207;DHT22;12351;52.284;9.160;2024-01-06T06:51:46;5.90;99.90
24207;DHT22;12351;52.284;9.160;2024-01-06T06:54:34;5.90;99.90
24207;DHT22;12351;52.284;9.160;2024-01-06T06:57:21;5.90;99.90
24207;DHT22;12351;52.284;9.160;2024-01-06T07:00:10;5.90;99.90
24207;DHT22;12351;52.284;9.160;2024-01-06T07:02:57;5.90;99.90
24207;DHT22;12351;52.284;9.160;2024-01-06T07:05:44;5.90;99.90
24207;DHT22;12351;52.284;9.160;2024-01-06T07:11:20;5.90;99.90
24207;DHT22;12351;52.284;9.160;2024-01-06T07:14:07;5.90;99.90
24207;DHT22;12351;52.284;9.160;2024-01-06T07:16:55;5.90;99.90
24207;DHT22;12351;52.284;9.160;2024-01-06T07:19:42;5.90;99.90
24207;DHT22;12351;52.284;9.160;2024-01-06T07:22:29;5.90;99.90
24207;DHT22;12351;52.284;9.160;2024-01-06T07:25:16;5.90;99.90
24207;DHT22;12351;52.284;9.160;2024-01-06T07:28:03;5.90;99.90
24207;DHT22;12351;52.284;9.160;2024-01-06T07:30:51;5.90;99.90
24207;DHT22;12351;52.284;9.160;2024-01-06T07:33:38;5.90;99.90
24207;DHT22;12351;52.284;9.160;2024-01-06T07:36:25;5.90;99.90
24207;DHT22;12351;52.284;9.160;2024-01-06T07:39:13;5.90;99.90
24207;DHT22;12351;52.284;9.160;2024-01-06T07:42:01;5.90;99.90
24207;DHT22;12351;52.284;9.160;2024-01-06T07:44:48;5.90;99.90
24207;DHT22;12351;52.284;9.160;2024-01-06T07:47:35;5.90;99.90
24207;DHT22;12351;52.284;9.160;2024-01-06T07:50:22;5.90;99.90
24207;DHT22;12351;52.284;9.160;2024-01-06T07:53:09;5.90;99.90
24207;DHT22;12351;52.284;9.160;2024-01-06T07:55:57;5.90;99.90
24207;DHT22;12351;52.284;9.160;2024-01-06T07:58:44;5.90;99.90
24207;DHT22;12351;52.284;9.160;2024-01-06T08:01:32;5.90;99.90
24207;DHT22;12351;52.284;9.160;2024-01-06T08:04:19;5.90;99.90
24207;DHT22;12351;52.284;9.160;2024-01-06T08:07:06;5.90;99.90
24207;DHT22;12351;52.284;9.160;2024-01-06T08:09:54;5.90;99.90
24207;DHT22;12351;52.284;9.160;2024-01-06T08:12:41;5.90;99.90
24207;DHT22;12351;52.284;9.160;2024-01-06T08:15:28;5.90;99.90
24207;DHT22;12351;52.284;9.160;2024-01-06T08:18:15;5.90;99.90
24207;DHT22;12351;52.284;9.160;2024-01-06T08:21:04;5.90;99.90
24207;DHT22;12351;52.284;9.160;2024-01-06T08:23:51;5.80;99.90
24207;DHT22;12351;52.284;9.160;2024-01-06T08:26:38;5.80;99.90
24207;DHT22;12351;52.284;9.160;2024-01-06T08:29:25;5.80;99.90
24207;DHT22;12351;52.284;9.160;2024-01-06T08:32:13;5.80;99.90
24207;DHT22;12351;52.284;9.160;2024-01-06T08:35:06;5.80;99.90
24207;DHT22;12351;52.284;9.160;2024-01-06T08:37:53;5.80;99.90
24207;DHT22;12351;52.284;9.160;2024-01-06T08:40:41;5.80;99.90
24207;DHT22;12351;52.284;9.160;2024-01-06T08:43:32;5.80;99.90
24207;DHT22;12351;52.284;9.160;2024-01-06T08:46:19;5.80;99.90
24207;DHT22;12351;52.284;9.160;2024-01-06T08:49:10;5.80;99.90
24207;DHT22;12351;52.284;9.160;2024-01-06T08:51:58;5.80;99.90
24207;DHT22;12351;52.284;9.160;2024-01-06T08:54:45;5.80;99.90
24207;DHT22;12351;52.284;9.160;2024-01-06T08:57:32;5.70;99.90
24207;DHT22;12351;52.284;9.160;2024-01-06T09:00:21;5.70;99.90
24207;DHT22;12351;52.284;9.160;2024-01-06T09:03:08;5.70;99.90
24207;DHT22;12351;52.284;9.160;2024-01-06T09:05:56;5.70;99.90
24207;DHT22;12351;52.284;9.160;2024-01-06T09:08:43;5.70;99.90
24207;DHT22;12351;52.284;9.160;2024-01-06T09:11:30;5.70;99.90
24207;DHT22;12351;52.284;9.160;2024-01-06T09:14:19;5.70;99.90
24207;DHT22;12351;52.284;9.160;2024-01-06T09:17:06;5.70;99.90
24207;DHT22;12351;52.284;9.160;2024-01-06T09:19:53;5.70;99.90
24207;DHT22;12351;52.284;9.160;2024-01-06T09:22:40;5.70;99.90
24207;DHT22;12351;52.284;9.160;2024-01-06T09:25:27;5.60;99.90
24207;DHT22;12351;52.284;9.160;2024-01-06T09:28:14;5.60;99.90
24207;DHT22;12351;52.284;9.160;2024-01-06T09:31:01;5.60;99.90
24207;DHT22;12351;52.284;9.160;2024-01-06T09:33:50;5.60;99.90
24207;DHT22;12351;52.284;9.160;2024-01-06T09:36:37;5.60;99.90
24207;DHT22;12351;52.284;9.160;2024-01-06T09:39:25;5.60;99.90
24207;DHT22;12351;52.284;9.160;2024-01-06T09:42:12;5.50;99.90
24207;DHT22;12351;52.284;9.160;2024-01-06T09:44:59;5.50;99.90
24207;DHT22;12351;52.284;9.160;2024-01-06T09:47:49;5.50;99.90
24207;DHT22;12351;52.284;9.160;2024-01-06T09:50:37;5.50;99.90
24207;DHT22;12351;52.284;9.160;2024-01-06T09:53:28;5.50;99.90
24207;DHT22;12351;52.284;9.160;2024-01-06T09:56:16;5.50;99.90
24207;DHT22;12351;52.284;9.160;2024-01-06T09:59:03;5.50;99.90
24207;DHT22;12351;52.284;9.160;2024-01-06T10:01:51;5.40;99.90
24207;DHT22;12351;52.284;9.160;2024-01-06T10:04:39;5.40;99.90
24207;DHT22;12351;52.284;9.160;2024-01-06T10:07:26;5.40;99.90
24207;DHT22;12351;52.284;9.160;2024-01-06T10:10:15;5.40;99.90
24207;DHT22;12351;52.284;9.160;2024-01-06T10:13:01;5.40;99.90
24207;DHT22;12351;52.284;9.160;2024-01-06T10:15:50;5.40;99.90
24207;DHT22;12351;52.284;9.160;2024-01-06T10:18:37;5.40;99.90
24207;DHT22;12351;52.284;9.160;2024-01-06T10:21:25;5.40;99.90
24207;DHT22;12351;52.284;9.160;2024-01-06T10:24:13;5.40;99.90
24207;DHT22;12351;52.284;9.160;2024-01-06T10:27:00;5.40;99.90
24207;DHT22;12351;52.284;9.160;2024-01-06T10:29:47;5.40;99.90
24207;DHT22;12351;52.284;9.160;2024-01-06T10:32:34;5.40;99.90
24207;DHT22;12351;52.284;9.160;2024-01-06T10:35:24;5.40;99.90
24207;DHT22;12351;52.284;9.160;2024-01-06T10:38:11;5.40;99.90
24207;DHT22;12351;52.284;9.160;2024-01-06T10:41:00;5.40;99.90
24207;DHT22;12351;52.284;9.160;2024-01-06T10:43:51;5.40;99.90
24207;DHT22;12351;52.284;9.160;2024-01-06T10:46:38;5.40;99.90
24207;DHT22;12351;52.284;9.160;2024-01-06T10:49:27;5.40;99.90
24207;DHT22;12351;52.284;9.160;2024-01-06T10:52:15;5.40;99.90
24207;DHT22;12351;52.284;9.160;2024-01-06T10:55:05;5.40;99.90
24207;DHT22;12351;52.284;9.160;2024-01-06T10:57:53;5.40;99.90
24207;DHT22;12351;52.284;9.160;2024-01-06T11:00:41;5.40;99.90
24207;DHT22;12351;52.284;9.160;2024-01-06T11:03:29;5.40;99.90
24207;DHT22;12351;52.284;9.160;2024-01-06T11:06:25;5.40;99.90
24207;DHT22;12351;52.284;9.160;2024-01-06T11:09:16;5.30;99.90
24207;DHT22;12351;52.284;9.160;2024-01-06T11:12:03;5.40;99.90
24207;DHT22;12351;52.284;9.160;2024-01-06T11:14:52;5.40;99.90
24207;DHT22;12351;52.284;9.160;2024-01-06T11:17:53;5.40;99.90
24207;DHT22;12351;52.284;9.160;2024-01-06T11:21:02;5.30;99.90
24207;DHT22;12351;52.284;9.160;2024-01-06T11:23:31;5.30;99.90
24207;DHT22;12351;52.284;9.160;2024-01-06T11:26:24;5.30;99.90
24207;DHT22;12351;52.284;9.160;2024-01-06T11:29:13;5.30;99.90
24207;DHT22;12351;52.284;9.160;2024-01-06T11:34:51;5.30;99.90
24207;DHT22;12351;52.284;9.160;2024-01-06T11:40:31;5.30;99.90
24207;DHT22;12351;52.284;9.160;2024-01-06T11:43:20;5.30;99.90
24207;DHT22;12351;52.284;9.160;2024-01-06T11:46:11;5.30;99.90
24207;DHT22;12351;52.284;9.160;2024-01-06T11:48:59;5.30;99.90
24207;DHT22;12351;52.284;9.160;2024-01-06T11:51:46;5.30;99.90
24207;DHT22;12351;52.284;9.160;2024-01-06T11:54:33;5.30;99.90
24207;DHT22;12351;52.284;9.160;2024-01-06T11:57:24;5.30;99.90
24207;DHT22;12351;52.284;9.160;2024-01-06T12:00:13;5.30;99.90
24207;DHT22;12351;52.284;9.160;2024-01-06T12:03:01;5.20;99.90
24207;DHT22;12351;52.284;9.160;2024-01-06T12:08:41;5.20;99.90
24207;DHT22;12351;52.284;9.160;2024-01-06T12:11:28;5.20;99.90
24207;DHT22;12351;52.284;9.160;2024-01-06T12:14:16;5.20;99.90
24207;DHT22;12351;52.284;9.160;2024-01-06T12:17:04;5.20;99.90
24207;DHT22;12351;52.284;9.160;2024-01-06T12:19:51;5.20;99.90
24207;DHT22;12351;52.284;9.160;2024-01-06T12:22:39;5.20;99.90
24207;DHT22;12351;52.284;9.160;2024-01-06T12:25:27;5.20;99.90
24207;DHT22;12351;52.284;9.160;2024-01-06T12:28:16;5.20;99.90
24207;DHT22;12351;52.284;9.160;2024-01-06T12:31:09;5.20;99.90
24207;DHT22;12351;52.284;9.160;2024-01-06T12:33:58;5.10;99.90
24207;DHT22;12351;52.284;9.160;2024-01-06T12:36:46;5.10;99.90
24207;DHT22;12351;52.284;9.160;2024-01-06T12:39:33;5.10;99.90
24207;DHT22;12351;52.284;9.160;2024-01-06T12:42:20;5.10;99.90
24207;DHT22;12351;52.284;9.160;2024-01-06T12:45:09;5.10;99.90
24207;DHT22;12351;52.284;9.160;2024-01-06T12:47:56;5.10;99.90
24207;DHT22;12351;52.284;9.160;2024-01-06T12:50:46;5.10;99.90
24207;DHT22;12351;52.284;9.160;2024-01-06T12:53:33;5.10;99.90
24207;DHT22;12351;52.284;9.160;2024-01-06T12:56:21;5.00;99.90
24207;DHT22;12351;52.284;9.160;2024-01-06T12:59:07;5.00;99.90
24207;DHT22;12351;52.284;9.160;2024-01-06T13:01:54;5.00;99.90
24207;DHT22;12351;52.284;9.160;2024-01-06T13:04:40;5.00;99.90
24207;DHT22;12351;52.284;9.160;2024-01-06T13:07:30;5.00;99.90
24207;DHT22;12351;52.284;9.160;2024-01-06T13:10:17;4.90;99.90
24207;DHT22;12351;52.284;9.160;2024-01-06T13:13:08;4.90;99.90
24207;DHT22;12351;52.284;9.160;2024-01-06T13:15:55;4.90;99.90
24207;DHT22;12351;52.284;9.160;2024-01-06T13:18:41;4.90;99.90
24207;DHT22;12351;52.284;9.160;2024-01-06T13:21:31;4.90;99.90
24207;DHT22;12351;52.284;9.160;2024-01-06T13:24:17;4.90;99.90
24207;DHT22;12351;52.284;9.160;2024-01-06T13:27:06;4.90;99.90
24207;DHT22;12351;52.284;9.160;2024-01-06T13:29:54;4.80;99.90
24207;DHT22;12351;52.284;9.160;2024-01-06T13:32:40;4.80;99.90
24207;DHT22;12351;52.284;9.160;2024-01-06T13:35:29;4.80;99.90
24207;DHT22;12351;52.284;9.160;2024-01-06T13:41:05;4.70;99.90
24207;DHT22;12351;52.284;9.160;2024-01-06T13:43:55;4.70;99.90
24207;DHT22;12351;52.284;9.160;2024-01-06T13:46:42;4.70;99.90
24207;DHT22;12351;52.284;9.160;2024-01-06T13:49:30;4.70;99.90
24207;DHT22;12351;52.284;9.160;2024-01-06T13:52:17;4.70;99.90
24207;DHT22;12351;52.284;9.160;2024-01-06T13:57:54;4.60;99.90
24207;DHT22;12351;52.284;9.160;2024-01-06T14:00:43;4.60;99.90
24207;DHT22;12351;52.284;9.160;2024-01-06T14:03:30;4.60;99.90
24207;DHT22;12351;52.284;9.160;2024-01-06T14:06:18;4.60;99.90
24207;DHT22;12351;52.284;9.160;2024-01-06T14:09:05;4.60;99.90
24207;DHT22;12351;52.284;9.160;2024-01-06T14:11:53;4.50;99.90
24207;DHT22;12351;52.284;9.160;2024-01-06T14:14:41;4.50;99.90
24207;DHT22;12351;52.284;9.160;2024-01-06T14:17:27;4.50;99.90
24207;DHT22;12351;52.284;9.160;2024-01-06T14:20:14;4.50;99.90
24207;DHT22;12351;52.284;9.160;2024-01-06T14:23:02;4.50;99.90
24207;DHT22;12351;52.284;9.160;2024-01-06T14:25:48;4.50;99.90
24207;DHT22;12351;52.284;9.160;2024-01-06T14:28:35;4.50;99.90
24207;DHT22;12351;52.284;9.160;2024-01-06T14:31:22;4.40;99.90
24207;DHT22;12351;52.284;9.160;2024-01-06T14:34:08;4.40;99.90
24207;DHT22;12351;52.284;9.160;2024-01-06T14:36:55;4.40;99.90
24207;DHT22;12351;52.284;9.160;2024-01-06T14:39:41;4.30;99.90
24207;DHT22;12351;52.284;9.160;2024-01-06T14:42:27;4.30;99.90
24207;DHT22;12351;52.284;9.160;2024-01-06T14:45:15;4.30;99.90
24207;DHT22;12351;52.284;9.160;2024-01-06T14:48:04;4.30;99.90
24207;DHT22;12351;52.284;9.160;2024-01-06T14:50:50;4.30;99.90
24207;DHT22;12351;52.284;9.160;2024-01-06T14:53:37;4.20;99.90
24207;DHT22;12351;52.284;9.160;2024-01-06T14:56:26;4.20;99.90
24207;DHT22;12351;52.284;9.160;2024-01-06T14:59:16;4.20;99.90
24207;DHT22;12351;52.284;9.160;2024-01-06T15:02:03;4.20;99.90
24207;DHT22;12351;52.284;9.160;2024-01-06T15:04:51;4.10;99.90
24207;DHT22;12351;52.284;9.160;2024-01-06T15:07:38;4.10;99.90
24207;DHT22;12351;52.284;9.160;2024-01-06T15:10:24;4.10;99.90
24207;DHT22;12351;52.284;9.160;2024-01-06T15:13:11;4.10;99.90
24207;DHT22;12351;52.284;9.160;2024-01-06T15:15:57;4.10;99.90
24207;DHT22;12351;52.284;9.160;2024-01-06T15:18:44;4.10;99.90
24207;DHT22;12351;52.284;9.160;2024-01-06T15:21:31;4.10;99.90
24207;DHT22;12351;52.284;9.160;2024-01-06T15:24:18;4.00;99.90
24207;DHT22;12351;52.284;9.160;2024-01-06T15:27:05;4.00;99.90
24207;DHT22;12351;52.284;9.160;2024-01-06T15:29:51;4.00;99.90
24207;DHT22;12351;52.284;9.160;2024-01-06T15:32:40;3.90;99.90
24207;DHT22;12351;52.284;9.160;2024-01-06T15:35:26;3.90;99.90
24207;DHT22;12351;52.284;9.160;2024-01-06T15:38:12;3.90;99.90
24207;DHT22;12351;52.284;9.160;2024-01-06T15:40:58;3.90;99.90
24207;DHT22;12351;52.284;9.160;2024-01-06T15:43:45;3.90;99.90
24207;DHT22;12351;52.284;9.160;2024-01-06T15:46:32;3.80;99.90
24207;DHT22;12351;52.284;9.160;2024-01-06T15:49:19;3.80;99.90
24207;DHT22;12351;52.284;9.160;2024-01-06T15:54:53;3.80;99.90
24207;DHT22;12351;52.284;9.160;2024-01-06T15:57:40;3.80;99.90
24207;DHT22;12351;52.284;9.160;2024-01-06T16:00:27;3.70;99.90
24207;DHT22;12351;52.284;9.160;2024-01-06T16:03:13;3.70;99.90
24207;DHT22;12351;52.284;9.160;2024-01-06T16:06:00;3.70;99.90
24207;DHT22;12351;52.284;9.160;2024-01-06T16:08:47;3.70;99.90
24207;DHT22;12351;52.284;9.160;2024-01-06T16:11:33;3.60;99.90
24207;DHT22;12351;52.284;9.160;2024-01-06T16:14:20;3.60;99.90
24207;DHT22;12351;52.284;9.160;2024-01-06T16:17:08;3.60;99.90
24207;DHT22;12351;52.284;9.160;2024-01-06T16:19:55;3.60;99.90
24207;DHT22;12351;52.284;9.160;2024-01-06T16:22:42;3.50;99.90
24207;DHT22;12351;52.284;9.160;2024-01-06T16:25:30;3.50;99.90
24207;DHT22;12351;52.284;9.160;2024-01-06T16:28:18;3.50;99.90
24207;DHT22;12351;52.284;9.160;2024-01-06T16:31:06;3.50;99.90
24207;DHT22;12351;52.284;9.160;2024-01-06T16:33:53;3.50;99.90
24207;DHT22;12351;52.284;9.160;2024-01-06T16:36:40;3.40;99.90
24207;DHT22;12351;52.284;9.160;2024-01-06T16:39:27;3.50;99.90
24207;DHT22;12351;52.284;9.160;2024-01-06T16:42:15;3.40;99.90
24207;DHT22;12351;52.284;9.160;2024-01-06T16:45:01;3.40;99.90
24207;DHT22;12351;52.284;9.160;2024-01-06T16:47:48;3.40;99.90
24207;DHT22;12351;52.284;9.160;2024-01-06T16:50:34;3.30;99.90
24207;DHT22;12351;52.284;9.160;2024-01-06T16:53:21;3.30;99.90
24207;DHT22;12351;52.284;9.160;2024-01-06T16:56:08;3.30;99.90
24207;DHT22;12351;52.284;9.160;2024-01-06T16:58:54;3.30;99.90
24207;DHT22;12351;52.284;9.160;2024-01-06T17:01:41;3.30;99.90
24207;DHT22;12351;52.284;9.160;2024-01-06T17:04:27;3.30;99.90
24207;DHT22;12351;52.284;9.160;2024-01-06T17:07:15;3.20;99.90
24207;DHT22;12351;52.284;9.160;2024-01-06T17:10:02;3.20;99.90
24207;DHT22;12351;52.284;9.160;2024-01-06T17:12:49;3.20;99.90
24207;DHT22;12351;52.284;9.160;2024-01-06T17:15:36;3.10;99.90
24207;DHT22;12351;52.284;9.160;2024-01-06T17:18:23;3.10;99.90
24207;DHT22;12351;52.284;9.160;2024-01-06T17:21:10;3.10;99.90
24207;DHT22;12351;52.284;9.160;2024-01-06T17:23:58;3.10;99.90
24207;DHT22;12351;52.284;9.160;2024-01-06T17:26:44;3.10;99.90
24207;DHT22;12351;52.284;9.160;2024-01-06T17:29:31;3.10;99.90
24207;DHT22;12351;52.284;9.160;2024-01-06T17:32:18;3.00;99.90
24207;DHT22;12351;52.284;9.160;2024-01-06T17:35:05;3.00;99.90
24207;DHT22;12351;52.284;9.160;2024-01-06T17:37:53;3.00;99.90
24207;DHT22;12351;52.284;9.160;2024-01-06T17:40:40;3.00;99.90
24207;DHT22;12351;52.284;9.160;2024-01-06T17:43:26;3.00;99.90
24207;DHT22;12351;52.284;9.160;2024-01-06T17:46:13;2.90;99.90
24207;DHT22;12351;52.284;9.160;2024-01-06T17:48:59;2.90;99.90
24207;DHT22;12351;52.284;9.160;2024-01-06T17:51:47;2.90;99.90
24207;DHT22;12351;52.284;9.160;2024-01-06T17:54:33;2.80;99.90
24207;DHT22;12351;52.284;9.160;2024-01-06T17:57:20;2.80;99.90
24207;DHT22;12351;52.284;9.160;2024-01-06T18:00:07;2.80;99.90
24207;DHT22;12351;52.284;9.160;2024-01-06T18:02:55;2.80;99.90
24207;DHT22;12351;52.284;9.160;2024-01-06T18:05:42;2.80;99.90
24207;DHT22;12351;52.284;9.160;2024-01-06T18:08:28;2.70;99.90
24207;DHT22;12351;52.284;9.160;2024-01-06T18:11:14;2.70;99.90
24207;DHT22;12351;52.284;9.160;2024-01-06T18:14:01;2.70;99.90
24207;DHT22;12351;52.284;9.160;2024-01-06T18:16:47;2.70;99.90
24207;DHT22;12351;52.284;9.160;2024-01-06T18:19:34;2.70;99.90
24207;DHT22;12351;52.284;9.160;2024-01-06T18:22:21;2.60;99.90
24207;DHT22;12351;52.284;9.160;2024-01-06T18:25:07;2.60;99.90
24207;DHT22;12351;52.284;9.160;2024-01-06T18:27:53;2.60;99.90
24207;DHT22;12351;52.284;9.160;2024-01-06T18:30:40;2.60;99.90
24207;DHT22;12351;52.284;9.160;2024-01-06T18:33:26;2.60;99.90
24207;DHT22;12351;52.284;9.160;2024-01-06T18:36:13;2.60;99.90